createdAt,value
2023-04-08T00:01:11.194Z,22.27
2023-04-08T00:03:38.583Z,23.10
2023-04-08T00:06:05.671Z,22.83
2023-04-08T00:08:32.794Z,24.70
2023-04-08T00:10:59.954Z,23.50
2023-04-08T00:13:27.006Z,24.93
2023-04-08T00:15:55.472Z,23.10
2023-04-08T00:18:22.554Z,24.53
2023-04-08T00:20:49.641Z,25.63
2023-04-08T00:23:16.678Z,25.23
2023-04-08T00:25:43.854Z,23.50
2023-04-08T00:28:10.971Z,26.27
2023-04-08T00:30:38.082Z,25.30
2023-04-08T00:33:06.536Z,23.50
2023-04-08T00:35:33.767Z,22.57
2023-04-08T00:38:01.018Z,24.47
2023-04-08T00:40:28.130Z,24.67
2023-04-08T00:42:57.291Z,23.30
2023-04-08T00:45:24.410Z,25.80
2023-04-08T00:47:51.478Z,26.53
2023-04-08T00:50:20.012Z,24.10
2023-04-08T00:52:47.126Z,22.93
2023-04-08T00:55:14.168Z,26.70
2023-04-08T00:57:41.642Z,24.20
2023-04-08T01:00:09.329Z,23.93
2023-04-08T01:02:39.996Z,22.20
2023-04-08T01:05:08.459Z,21.10
2023-04-08T01:07:37.677Z,23.37
2023-04-08T01:10:07.027Z,23.30
2023-04-08T01:12:37.818Z,23.70
2023-04-08T01:15:05.919Z,24.23
2023-04-08T01:17:33.737Z,25.93
2023-04-08T01:20:01.831Z,26.17
2023-04-08T01:22:33.561Z,25.50
2023-04-08T01:25:05.595Z,27.10
2023-04-08T01:27:34.366Z,27.80
2023-04-08T01:30:02.452Z,28.00
2023-04-08T01:32:31.936Z,26.47
2023-04-08T01:34:59.703Z,27.27
2023-04-08T01:37:29.927Z,28.80
2023-04-08T01:39:57.822Z,29.00
2023-04-08T01:42:25.439Z,31.90
2023-04-08T01:44:56.071Z,36.30
2023-04-08T01:47:23.523Z,37.87
2023-04-08T01:49:50.965Z,39.93
2023-04-08T01:52:19.002Z,36.70
2023-04-08T01:54:46.253Z,38.40
2023-04-08T01:57:15.970Z,37.53
2023-04-08T01:59:43.305Z,37.67
2023-04-08T02:02:12.804Z,40.47
2023-04-08T02:04:40.172Z,41.13
2023-04-08T02:07:07.445Z,39.63
2023-04-08T02:09:34.750Z,38.23
2023-04-08T02:12:01.803Z,43.10
2023-04-08T02:14:29.094Z,40.40
2023-04-08T02:17:00.858Z,41.40
2023-04-08T02:19:30.441Z,40.80
2023-04-08T02:21:58.536Z,40.87
2023-04-08T02:24:26.602Z,43.80
2023-04-08T02:26:55.533Z,42.37
2023-04-08T02:29:25.177Z,43.10
2023-04-08T02:31:54.673Z,41.17
2023-04-08T02:34:22.934Z,43.23
2023-04-08T02:36:51.644Z,47.33
2023-04-08T02:39:18.762Z,42.10
2023-04-08T02:41:48.787Z,47.90
2023-04-08T02:44:15.861Z,46.43
2023-04-08T02:46:42.908Z,46.00
2023-04-08T02:49:09.956Z,46.00
2023-04-08T02:51:37.085Z,43.97
2023-04-08T02:54:05.563Z,43.57
2023-04-08T02:56:32.897Z,45.57
2023-04-08T02:58:59.958Z,43.50
2023-04-08T03:01:27.056Z,45.73
2023-04-08T03:03:54.325Z,45.33
2023-04-08T03:06:21.454Z,44.57
2023-04-08T03:08:48.740Z,43.40
2023-04-08T03:11:17.388Z,44.23
2023-04-08T03:13:44.494Z,43.90
2023-04-08T03:16:11.590Z,44.57
2023-04-08T03:18:38.874Z,43.33
2023-04-08T03:21:05.942Z,46.50
2023-04-08T03:23:32.966Z,46.27
2023-04-08T03:25:59.979Z,45.67
2023-04-08T03:28:28.336Z,47.40
2023-04-08T03:30:55.566Z,45.57
2023-04-08T03:33:22.624Z,44.87
2023-04-08T03:35:49.650Z,47.60
2023-04-08T03:38:16.697Z,45.67
2023-04-08T03:40:43.762Z,43.90
2023-04-08T03:43:10.832Z,48.30
2023-04-08T03:45:39.392Z,48.07
2023-04-08T03:48:06.923Z,47.57
2023-04-08T03:50:34.034Z,43.60
2023-04-08T03:53:01.109Z,42.30
2023-04-08T03:55:28.181Z,47.20
2023-04-08T03:57:55.255Z,48.33
2023-04-08T04:00:22.403Z,44.47
2023-04-08T04:02:50.889Z,45.07
2023-04-08T04:05:18.152Z,47.83
2023-04-08T04:07:45.213Z,45.80
2023-04-08T04:10:12.289Z,49.37
2023-04-08T04:12:39.370Z,47.27
2023-04-08T04:15:07.030Z,45.07
2023-04-08T04:17:34.158Z,47.30
2023-04-08T04:20:03.998Z,48.57
2023-04-08T04:22:31.093Z,48.03
2023-04-08T04:24:58.136Z,45.67
2023-04-08T04:27:25.244Z,48.80
2023-04-08T04:29:52.352Z,48.07
2023-04-08T04:32:19.456Z,47.30
2023-04-08T04:34:46.608Z,50.63
2023-04-08T04:37:14.949Z,46.70
2023-04-08T04:39:41.967Z,43.97
2023-04-08T04:42:09.032Z,49.03
2023-04-08T04:44:36.080Z,48.23
2023-04-08T04:47:03.129Z,48.10
2023-04-08T04:49:30.288Z,45.27
2023-04-08T04:51:57.326Z,43.93
2023-04-08T04:54:25.691Z,47.70
2023-04-08T04:56:52.783Z,45.23
2023-04-08T04:59:19.857Z,47.90
2023-04-08T05:01:47.042Z,42.77
2023-04-08T05:04:14.241Z,39.73
2023-04-08T05:06:41.312Z,38.67
2023-04-08T05:09:08.343Z,39.83
2023-04-08T05:11:36.801Z,37.77
2023-04-08T05:14:03.874Z,37.57
2023-04-08T05:16:30.996Z,36.20
2023-04-08T05:18:58.060Z,39.33
2023-04-08T05:21:25.145Z,37.93
2023-04-08T05:23:52.251Z,41.97
2023-04-08T05:26:20.359Z,39.67
2023-04-08T05:28:49.170Z,42.43
2023-04-08T05:31:16.581Z,40.50
2023-04-08T05:33:43.701Z,37.57
2023-04-08T05:36:11.204Z,37.90
2023-04-08T05:38:38.508Z,36.83
2023-04-08T05:41:05.655Z,36.17
2023-04-08T05:43:33.349Z,34.53
2023-04-08T05:46:01.807Z,37.73
2023-04-08T05:48:28.845Z,37.07
2023-04-08T05:50:55.893Z,39.40
2023-04-08T05:53:23.021Z,38.20
2023-04-08T05:55:50.051Z,37.53
2023-04-08T05:58:17.071Z,35.63
2023-04-08T06:00:44.092Z,37.00
2023-04-08T06:03:12.920Z,39.90
2023-04-08T06:05:40.235Z,37.40
2023-04-08T06:08:07.308Z,40.77
2023-04-08T06:10:34.318Z,41.07
2023-04-08T06:13:01.418Z,40.87
2023-04-08T06:15:28.475Z,41.83
2023-04-08T06:17:55.644Z,40.40
2023-04-08T06:20:24.107Z,39.67
2023-04-08T06:22:51.182Z,38.97
2023-04-08T06:25:18.337Z,37.03
2023-04-08T06:27:45.380Z,42.30
2023-04-08T06:30:12.690Z,38.63
2023-04-08T06:32:39.845Z,37.70
2023-04-08T06:35:07.608Z,38.40
2023-04-08T06:37:36.018Z,37.87
2023-04-08T06:40:03.090Z,35.73
2023-04-08T06:42:30.143Z,39.10
2023-04-08T06:45:15.152Z,34.43
2023-04-08T06:47:42.311Z,35.90
2023-04-08T06:50:09.818Z,35.87
2023-04-08T06:52:38.178Z,34.60
2023-04-08T06:55:05.713Z,33.13
2023-04-08T06:57:32.790Z,34.80
2023-04-08T06:59:59.837Z,32.67
2023-04-08T07:02:26.921Z,32.10
2023-04-08T07:04:54.018Z,31.50
2023-04-08T07:07:21.058Z,28.90
2023-04-08T07:09:49.406Z,29.30
2023-04-08T07:12:16.474Z,30.90
2023-04-08T07:14:43.514Z,30.43
2023-04-08T07:17:10.678Z,30.67
2023-04-08T07:19:37.841Z,29.87
2023-04-08T07:22:04.950Z,32.00
2023-04-08T07:24:32.021Z,33.77
2023-04-08T07:27:00.424Z,31.80
2023-04-08T07:29:27.452Z,33.40
2023-04-08T07:31:54.500Z,35.10
2023-04-08T07:34:21.594Z,33.53
2023-04-08T07:36:48.736Z,40.50
2023-04-08T07:39:15.799Z,39.13
2023-04-08T07:41:42.899Z,37.33
2023-04-08T07:44:11.269Z,42.80
2023-04-08T07:46:38.679Z,43.70
2023-04-08T07:49:05.779Z,46.37
2023-04-08T07:51:32.843Z,46.83
2023-04-08T07:54:00.430Z,46.67
2023-04-08T07:56:27.509Z,46.47
2023-04-08T07:58:54.940Z,51.43
2023-04-08T08:01:23.919Z,53.17
2023-04-08T08:03:51.590Z,49.10
2023-04-08T08:06:19.350Z,55.10
2023-04-08T08:08:46.507Z,50.23
2023-04-08T08:11:13.656Z,48.90
2023-04-08T08:13:40.702Z,51.13
2023-04-08T08:16:07.884Z,51.10
2023-04-08T08:18:36.388Z,50.50
2023-04-08T08:21:03.600Z,48.40
2023-04-08T08:23:30.678Z,56.10
2023-04-08T08:26:00.056Z,51.77
2023-04-08T08:28:27.132Z,49.90
2023-04-08T08:30:54.219Z,52.10
2023-04-08T08:33:21.398Z,48.67
2023-04-08T08:35:49.842Z,47.20
2023-04-08T08:38:16.976Z,45.47
2023-04-08T08:40:44.033Z,44.40
2023-04-08T08:43:11.098Z,49.30
2023-04-08T08:45:39.816Z,44.70
2023-04-08T08:48:07.184Z,44.73
2023-04-08T08:50:34.373Z,47.80
2023-04-08T08:53:03.250Z,46.33
2023-04-08T08:55:50.807Z,47.87
2023-04-08T08:58:18.708Z,44.80
2023-04-08T09:00:45.758Z,47.03
2023-04-08T09:03:16.286Z,44.60
2023-04-08T09:05:50.248Z,44.13
2023-04-08T09:08:29.058Z,45.73
2023-04-08T09:10:56.517Z,44.87
2023-04-08T09:13:23.807Z,48.20
2023-04-08T09:16:04.163Z,47.63
2023-04-08T09:18:31.514Z,48.40
2023-04-08T09:20:59.909Z,47.07
2023-04-08T09:23:37.932Z,47.10
2023-04-08T09:26:07.791Z,46.03
2023-04-08T09:28:34.799Z,45.13
2023-04-08T09:31:01.910Z,44.83
2023-04-08T09:33:32.080Z,42.47
2023-04-08T09:35:59.200Z,40.30
2023-04-08T09:38:26.279Z,42.53
2023-04-08T09:40:54.861Z,39.70
2023-04-08T09:43:23.720Z,41.03
2023-04-08T09:45:51.107Z,41.10
2023-04-08T09:48:18.854Z,40.20
2023-04-08T09:50:48.122Z,40.57
2023-04-08T09:53:23.133Z,40.17
2023-04-08T09:55:51.684Z,39.03
2023-04-08T09:58:22.608Z,40.00
2023-04-08T10:00:50.669Z,44.37
2023-04-08T10:03:23.971Z,41.97
2023-04-08T10:05:53.120Z,41.73
2023-04-08T10:08:20.507Z,39.90
2023-04-08T10:10:48.024Z,42.03
2023-04-08T10:13:15.482Z,42.20
2023-04-08T10:15:43.861Z,39.53
2023-04-08T10:18:29.612Z,39.83
2023-04-08T10:20:56.639Z,40.77
2023-04-08T10:23:43.675Z,41.43
2023-04-08T10:26:30.397Z,37.07
2023-04-08T10:29:13.601Z,39.10
2023-04-08T10:31:42.198Z,38.90
2023-04-08T10:34:16.275Z,39.30
2023-04-08T10:36:43.339Z,41.37
2023-04-08T10:39:10.358Z,37.60
2023-04-08T10:41:41.974Z,37.67
2023-04-08T10:44:15.954Z,37.30
2023-04-08T10:46:44.392Z,37.40
2023-04-08T10:49:11.441Z,33.70
2023-04-08T10:51:38.877Z,35.10
2023-04-08T10:54:09.350Z,27.30
2023-04-08T10:56:36.656Z,33.47
2023-04-08T10:59:03.964Z,32.30
2023-04-08T11:01:38.699Z,29.70
2023-04-08T11:04:11.733Z,27.10
2023-04-08T11:06:38.847Z,26.43
2023-04-08T11:09:05.895Z,27.00
2023-04-08T11:11:33.018Z,26.57
2023-04-08T11:14:00.206Z,26.93
2023-04-08T11:16:27.539Z,28.73
2023-04-08T11:18:54.675Z,28.33
2023-04-08T11:21:23.803Z,32.40
2023-04-08T11:23:51.297Z,30.37
2023-04-08T11:26:18.737Z,31.03
2023-04-08T11:28:45.890Z,29.87
2023-04-08T11:31:13.432Z,31.83
2023-04-08T11:33:45.177Z,28.13
2023-04-08T11:36:12.954Z,18.60
2023-04-08T11:38:41.408Z,14.83
2023-04-08T11:41:08.737Z,14.03
2023-04-08T11:43:36.010Z,13.70
2023-04-08T11:46:09.109Z,15.47
2023-04-08T11:48:36.253Z,16.23
2023-04-08T11:51:03.774Z,16.20
2023-04-08T11:53:30.957Z,15.90
2023-04-08T11:55:59.371Z,12.17
2023-04-08T11:58:26.398Z,10.83
2023-04-08T12:00:53.427Z,11.13
2023-04-08T12:03:20.545Z,11.87
2023-04-08T12:05:47.644Z,12.73
2023-04-08T12:08:14.697Z,11.80
2023-04-08T12:10:41.752Z,14.73
2023-04-08T12:13:10.136Z,14.23
2023-04-08T12:15:37.169Z,13.27
2023-04-08T12:18:04.398Z,13.83
2023-04-08T12:20:31.493Z,12.70
2023-04-08T12:22:58.633Z,13.17
2023-04-08T12:25:25.679Z,13.03
2023-04-08T12:27:52.760Z,12.87
2023-04-08T12:30:21.246Z,10.60
2023-04-08T12:32:48.391Z,9.93
2023-04-08T12:35:15.479Z,8.60
2023-04-08T12:37:44.071Z,8.60
2023-04-08T12:40:11.241Z,7.93
2023-04-08T12:42:38.290Z,8.00
2023-04-08T12:45:05.661Z,8.70
2023-04-08T12:47:34.173Z,8.70
2023-04-08T12:50:01.361Z,8.37
2023-04-08T12:52:28.444Z,10.00
2023-04-08T12:54:55.486Z,9.33
2023-04-08T12:57:22.612Z,9.80
2023-04-08T12:59:49.612Z,9.20
2023-04-08T13:02:16.761Z,9.20
2023-04-08T13:04:45.228Z,7.90
2023-04-08T13:07:12.293Z,8.37
2023-04-08T13:09:39.343Z,9.70
2023-04-08T13:12:06.373Z,8.50
2023-04-08T13:14:33.472Z,8.40
2023-04-08T13:17:00.501Z,9.00
2023-04-08T13:19:27.591Z,6.70
2023-04-08T13:21:55.992Z,7.43
2023-04-08T13:24:23.050Z,7.53
2023-04-08T13:26:50.106Z,7.23
2023-04-08T13:29:17.159Z,7.73
2023-04-08T13:31:44.339Z,7.33
2023-04-08T13:34:11.414Z,8.10
2023-04-08T13:36:38.498Z,7.53
2023-04-08T13:39:06.888Z,8.47
2023-04-08T13:41:33.962Z,7.93
2023-04-08T13:44:01.087Z,7.80
2023-04-08T13:46:28.247Z,10.30
2023-04-08T13:48:55.337Z,8.23
2023-04-08T13:51:22.442Z,8.03
2023-04-08T13:53:49.554Z,8.00
2023-04-08T13:56:17.896Z,10.00
2023-04-08T13:58:49.686Z,9.60
2023-04-08T14:01:19.613Z,10.33
2023-04-08T14:03:46.791Z,11.03
2023-04-08T14:06:13.874Z,10.47
2023-04-08T14:08:40.993Z,12.50
2023-04-08T14:11:08.189Z,10.97
2023-04-08T14:13:36.622Z,10.90
2023-04-08T14:16:03.694Z,11.10
2023-04-08T14:18:30.891Z,11.03
2023-04-08T14:20:57.912Z,13.20
2023-04-08T14:23:24.970Z,13.33
2023-04-08T14:25:51.996Z,14.40
2023-04-08T14:28:19.041Z,13.20
2023-04-08T14:30:47.744Z,14.53
2023-04-08T14:33:14.913Z,13.90
2023-04-08T14:35:42.058Z,13.03
2023-04-08T14:38:09.239Z,14.40
2023-04-08T14:40:37.770Z,14.07
2023-04-08T14:43:05.091Z,13.40
2023-04-08T14:45:32.194Z,14.17
2023-04-08T14:48:00.670Z,14.20
2023-04-08T14:50:27.723Z,13.90
2023-04-08T14:52:54.815Z,14.63
2023-04-08T14:55:21.985Z,15.17
2023-04-08T14:57:49.242Z,13.87
2023-04-08T15:00:16.546Z,13.40
2023-04-08T15:02:43.703Z,13.87
2023-04-08T15:05:12.323Z,16.63
2023-04-08T15:07:39.374Z,14.43
2023-04-08T15:10:06.992Z,14.30
2023-04-08T15:12:34.029Z,14.63
2023-04-08T15:15:01.108Z,15.90
2023-04-08T15:17:28.274Z,14.80
2023-04-08T15:19:55.407Z,13.90
2023-04-08T15:22:23.792Z,13.10
2023-04-08T15:24:50.823Z,13.80
2023-04-08T15:27:17.841Z,12.50
2023-04-08T15:29:44.865Z,12.13
2023-04-08T15:32:11.975Z,15.90
2023-04-08T15:34:39.024Z,14.13
2023-04-08T15:37:06.141Z,11.77
2023-04-08T15:39:34.597Z,13.17
2023-04-08T15:42:01.730Z,12.37
2023-04-08T15:44:31.069Z,13.07
2023-04-08T15:46:58.184Z,14.03
2023-04-08T15:49:25.259Z,13.43
2023-04-08T15:51:52.401Z,14.77
2023-04-08T15:54:19.626Z,17.10
2023-04-08T15:56:48.056Z,17.27
2023-04-08T15:59:15.220Z,17.10
2023-04-08T16:01:43.506Z,19.60
2023-04-08T16:04:10.881Z,22.10
2023-04-08T16:06:37.957Z,21.33
2023-04-08T16:09:04.991Z,18.30
2023-04-08T16:11:33.793Z,17.80
2023-04-08T16:14:02.210Z,16.90
2023-04-08T16:16:29.351Z,16.70
2023-04-08T16:18:56.419Z,17.93
2023-04-08T16:21:23.654Z,17.50
2023-04-08T16:23:50.973Z,20.27
2023-04-08T16:26:18.118Z,20.73
2023-04-08T16:28:45.136Z,21.77
2023-04-08T16:31:13.532Z,22.13
2023-04-08T16:33:40.614Z,23.77
2023-04-08T16:36:07.791Z,24.57
2023-04-08T16:38:34.952Z,22.33
2023-04-08T16:41:02.184Z,21.80
2023-04-08T16:43:29.274Z,19.00
2023-04-08T16:45:56.488Z,18.03
2023-04-08T16:48:24.918Z,19.37
2023-04-08T16:50:51.972Z,19.87
2023-04-08T16:53:19.060Z,19.50
2023-04-08T16:55:46.119Z,20.10
2023-04-08T16:58:13.157Z,18.70
2023-04-08T17:00:40.264Z,19.40
2023-04-08T17:03:07.424Z,15.40
2023-04-08T17:05:35.968Z,15.87
2023-04-08T17:08:03.581Z,15.00
2023-04-08T17:10:30.612Z,12.87
2023-04-08T17:12:58.004Z,15.07
2023-04-08T17:15:25.282Z,14.20
2023-04-08T17:17:52.354Z,13.17
2023-04-08T17:20:19.652Z,14.80
2023-04-08T17:22:48.128Z,14.57
2023-04-08T17:25:15.255Z,13.70
2023-04-08T17:27:42.292Z,13.37
2023-04-08T17:30:11.411Z,14.70
2023-04-08T17:32:38.773Z,13.33
2023-04-08T17:35:06.023Z,15.67
2023-04-08T17:37:33.071Z,14.40
2023-04-08T17:40:01.674Z,14.93
2023-04-08T17:42:28.816Z,14.67
2023-04-08T17:44:55.856Z,15.57
2023-04-08T17:47:22.991Z,15.37
2023-04-08T17:49:50.072Z,15.07
2023-04-08T17:52:17.201Z,15.20
2023-04-08T17:54:44.283Z,16.70
2023-04-08T17:57:12.779Z,16.57
2023-04-08T17:59:39.801Z,16.17
2023-04-08T18:02:07.107Z,15.83
2023-04-08T18:04:34.238Z,17.60
2023-04-08T18:07:01.293Z,16.70
2023-04-08T18:09:28.332Z,16.40
2023-04-08T18:11:55.428Z,16.60
2023-04-08T18:14:23.861Z,17.37
2023-04-08T18:16:51.025Z,20.27
2023-04-08T18:19:18.021Z,17.20
2023-04-08T18:21:45.121Z,18.37
2023-04-08T18:24:12.317Z,17.43
2023-04-08T18:26:39.445Z,18.60
2023-04-08T18:29:06.574Z,20.33
2023-04-08T18:31:35.049Z,19.90
2023-04-08T18:34:02.152Z,18.10
2023-04-08T18:36:29.415Z,19.83
2023-04-08T18:38:56.534Z,20.57
2023-04-08T18:41:23.618Z,21.13
2023-04-08T18:43:50.911Z,21.27
2023-04-08T18:46:18.160Z,21.67
2023-04-08T18:48:46.949Z,19.70
2023-04-08T18:51:14.080Z,20.90
2023-04-08T18:53:41.195Z,21.37
2023-04-08T18:56:14.309Z,20.67
2023-04-08T18:58:41.431Z,21.20
2023-04-08T19:01:08.491Z,21.47
2023-04-08T19:03:35.841Z,22.17
2023-04-08T19:06:06.382Z,21.33
2023-04-08T19:08:33.527Z,21.90
2023-04-08T19:11:00.649Z,21.90
2023-04-08T19:13:27.705Z,22.90
2023-04-08T19:15:54.838Z,22.77
2023-04-08T19:18:22.010Z,23.27
2023-04-08T19:20:49.062Z,21.80
2023-04-08T19:23:17.568Z,22.53
2023-04-08T19:25:44.760Z,23.20
2023-04-08T19:28:11.768Z,23.07
2023-04-08T19:30:39.048Z,24.30
2023-04-08T19:33:06.363Z,24.20
2023-04-08T19:35:33.456Z,23.30
2023-04-08T19:38:00.536Z,26.23
2023-04-08T19:40:28.943Z,26.63
2023-04-08T19:42:56.081Z,25.40
2023-04-08T19:45:23.160Z,27.37
2023-04-08T19:47:50.260Z,25.73
2023-04-08T19:50:17.336Z,24.90
2023-04-08T19:52:44.391Z,25.70
2023-04-08T19:55:11.497Z,25.67
2023-04-08T19:57:39.927Z,25.90
2023-04-08T20:00:07.711Z,26.37
2023-04-08T20:02:34.937Z,26.90
2023-04-08T20:05:02.118Z,27.33
2023-04-08T20:07:29.286Z,25.00
2023-04-08T20:09:56.311Z,25.20
2023-04-08T20:12:23.367Z,24.90
2023-04-08T20:14:51.761Z,27.37
2023-04-08T20:17:18.794Z,28.60
2023-04-08T20:19:45.899Z,29.33
2023-04-08T20:22:12.975Z,29.90
2023-04-08T20:24:40.047Z,29.77
2023-04-08T20:27:07.075Z,26.30
2023-04-08T20:29:34.147Z,27.53
2023-04-08T20:32:02.591Z,25.47
2023-04-08T20:34:29.641Z,26.83
2023-04-08T20:36:56.706Z,27.90
2023-04-08T20:39:23.747Z,26.67
2023-04-08T20:41:50.836Z,26.80
2023-04-08T20:44:17.871Z,27.40
2023-04-08T20:46:44.954Z,26.73
2023-04-08T20:49:13.735Z,26.17
2023-04-08T20:51:40.799Z,30.37
2023-04-08T20:54:07.859Z,27.80
2023-04-08T20:56:34.869Z,29.30
2023-04-08T20:59:01.939Z,31.20
2023-04-08T21:01:29.129Z,29.40
2023-04-08T21:03:56.270Z,28.80
2023-04-08T21:06:24.682Z,29.77
2023-04-08T21:08:52.040Z,27.67
2023-04-08T21:11:19.273Z,31.40
2023-04-08T21:13:48.896Z,32.13
2023-04-08T21:16:16.487Z,31.47
2023-04-08T21:18:43.591Z,29.80
2023-04-08T21:21:10.818Z,33.30
2023-04-08T21:23:39.206Z,31.80
2023-04-08T21:26:10.541Z,31.17
2023-04-08T21:28:37.589Z,31.17
2023-04-08T21:31:08.063Z,29.27
2023-04-08T21:33:35.152Z,28.30
2023-04-08T21:36:02.340Z,30.23
2023-04-08T21:38:29.510Z,28.60
2023-04-08T21:40:57.864Z,31.30
2023-04-08T21:43:24.925Z,28.20
2023-04-08T21:45:52.030Z,28.03
2023-04-08T21:48:19.089Z,28.43
2023-04-08T21:50:46.187Z,26.10
2023-04-08T21:53:13.233Z,27.67
2023-04-08T21:55:40.323Z,29.83
2023-04-08T21:58:08.721Z,25.30
2023-04-08T22:00:35.789Z,29.00
2023-04-08T22:03:03.023Z,27.47
2023-04-08T22:05:31.885Z,28.23
2023-04-08T22:07:58.936Z,27.93
2023-04-08T22:10:26.025Z,28.50
2023-04-08T22:12:53.169Z,28.73
2023-04-08T22:15:21.755Z,27.07
2023-04-08T22:17:49.079Z,28.33
2023-04-08T22:20:16.212Z,27.33
2023-04-08T22:22:43.299Z,28.90
2023-04-08T22:25:10.694Z,28.30
2023-04-08T22:27:37.757Z,27.97
2023-04-08T22:30:05.290Z,31.23
2023-04-08T22:32:33.814Z,27.90
2023-04-08T22:35:00.924Z,29.90
2023-04-08T22:37:27.948Z,29.17
2023-04-08T22:39:55.027Z,29.57
2023-04-08T22:42:22.072Z,27.40
2023-04-08T22:44:49.124Z,29.50
2023-04-08T22:47:16.252Z,28.20
2023-04-08T22:49:44.832Z,25.97
2023-04-08T22:52:11.870Z,28.70
2023-04-08T22:54:38.952Z,30.50
2023-04-08T22:57:06.087Z,29.70
2023-04-08T22:59:33.178Z,31.00
2023-04-08T23:02:00.384Z,29.67
2023-04-08T23:04:27.557Z,33.07
2023-04-08T23:06:55.979Z,29.60
2023-04-08T23:09:23.048Z,31.47
2023-04-08T23:11:50.122Z,30.93
2023-04-08T23:14:17.176Z,34.37
2023-04-08T23:16:44.196Z,33.60
2023-04-08T23:19:11.250Z,33.27
2023-04-08T23:21:38.371Z,33.93
2023-04-08T23:24:06.963Z,31.27
2023-04-08T23:26:34.177Z,32.73
2023-04-08T23:29:01.241Z,34.93
2023-04-08T23:31:28.294Z,31.07
2023-04-08T23:33:55.403Z,34.77
2023-04-08T23:36:22.493Z,34.57
2023-04-08T23:38:50.358Z,33.90
2023-04-08T23:41:18.970Z,34.03
2023-04-08T23:43:46.785Z,32.20
2023-04-08T23:46:14.020Z,32.80
2023-04-08T23:48:41.147Z,32.30
2023-04-08T23:51:08.221Z,33.87
2023-04-08T23:53:35.279Z,33.17
2023-04-08T23:56:05.838Z,33.60
2023-04-08T23:58:34.364Z,32.70
